createdAt,value
2018-03-29T00:00:04.440Z,54.67
2018-03-29T00:02:35.504Z,48.40
2018-03-29T00:05:06.535Z,50.70
2018-03-29T00:07:37.928Z,52.70
2018-03-29T00:10:08.784Z,51.53
2018-03-29T00:12:39.706Z,52.13
2018-03-29T00:15:10.734Z,50.50
2018-03-29T00:17:41.752Z,53.05
2018-03-29T00:20:12.721Z,50.60
2018-03-29T00:22:43.879Z,52.20
2018-03-29T00:25:14.684Z,52.33
2018-03-29T00:27:45.745Z,55.40
2018-03-29T00:30:16.715Z,55.60
2018-03-29T00:32:47.752Z,56.25
2018-03-29T00:35:18.684Z,56.53
2018-03-29T00:37:49.743Z,55.45
2018-03-29T00:40:20.737Z,52.90
2018-03-29T00:42:51.804Z,55.60
2018-03-29T00:45:22.757Z,54.67
2018-03-29T00:47:54.180Z,56.08
2018-03-29T00:50:24.806Z,55.28
2018-03-29T00:52:55.545Z,50.35
2018-03-29T00:55:26.557Z,54.55
2018-03-29T00:57:57.613Z,55.47
2018-03-29T01:00:28.651Z,56.70
2018-03-29T01:02:59.724Z,56.40
2018-03-29T01:05:30.736Z,56.40
2018-03-29T01:08:01.786Z,55.33
2018-03-29T01:10:32.778Z,57.62
2018-03-29T01:13:03.448Z,55.30
2018-03-29T01:15:34.080Z,55.74
2018-03-29T01:18:04.800Z,53.58
2018-03-29T01:20:35.781Z,53.72
2018-03-29T01:23:06.935Z,54.55
2018-03-29T01:25:37.344Z,50.20
2018-03-29T01:28:08.253Z,53.16
2018-03-29T01:30:38.832Z,52.90
2018-03-29T01:33:09.762Z,52.75
2018-03-29T01:35:40.748Z,53.22
2018-03-29T01:38:12.847Z,51.92
2018-03-29T01:40:43.453Z,50.38
2018-03-29T01:43:14.196Z,53.28
2018-03-29T01:45:44.787Z,52.55
2018-03-29T01:48:15.761Z,49.22
2018-03-29T01:50:46.737Z,51.97
2018-03-29T01:53:17.913Z,51.55
2018-03-29T01:55:48.699Z,52.42
2018-03-29T01:58:25.072Z,51.88
2018-03-29T02:00:54.347Z,51.85
2018-03-29T02:03:23.924Z,53.27
2018-03-29T02:05:53.619Z,52.47
2018-03-29T02:08:23.338Z,49.60
2018-03-29T02:10:53.813Z,49.10
2018-03-29T02:13:24.788Z,50.78
2018-03-29T02:15:55.680Z,51.88
2018-03-29T02:18:26.561Z,51.63
2018-03-29T02:20:57.579Z,50.15
2018-03-29T02:23:28.652Z,49.53
2018-03-29T02:25:59.659Z,49.60
2018-03-29T02:28:30.744Z,48.00
2018-03-29T02:31:01.394Z,50.90
2018-03-29T02:33:32.117Z,50.32
2018-03-29T02:36:02.767Z,53.67
2018-03-29T02:38:33.716Z,50.22
2018-03-29T02:41:04.723Z,48.72
2018-03-29T02:43:35.781Z,47.33
2018-03-29T02:46:06.720Z,47.47
2018-03-29T02:48:37.797Z,45.40
2018-03-29T02:51:08.701Z,48.80
2018-03-29T02:53:39.903Z,48.22
2018-03-29T02:56:10.669Z,43.20
2018-03-29T02:58:41.720Z,45.10
2018-03-29T03:01:12.709Z,46.53
2018-03-29T03:03:43.759Z,46.03
2018-03-29T03:06:14.753Z,46.92
2018-03-29T03:08:45.775Z,45.55
2018-03-29T03:11:16.791Z,49.30
2018-03-29T03:13:47.844Z,44.70
2018-03-29T03:16:18.704Z,44.45
2018-03-29T03:18:49.736Z,45.10
2018-03-29T03:21:20.637Z,43.90
2018-03-29T03:23:51.659Z,46.22
2018-03-29T03:26:22.665Z,42.75
2018-03-29T03:28:53.360Z,45.32
2018-03-29T03:31:23.845Z,43.62
2018-03-29T03:33:54.392Z,43.70
2018-03-29T03:36:25.078Z,45.82
2018-03-29T03:38:55.805Z,44.50
2018-03-29T03:41:26.374Z,43.04
2018-03-29T03:43:57.122Z,46.02
2018-03-29T03:46:27.721Z,42.05
2018-03-29T03:48:58.773Z,43.65
2018-03-29T03:51:29.781Z,42.28
2018-03-29T03:54:00.896Z,41.63
2018-03-29T03:56:32.073Z,41.22
2018-03-29T03:59:02.050Z,42.30
2018-03-29T04:01:39.027Z,42.47
2018-03-29T04:04:08.306Z,41.40
2018-03-29T04:06:37.604Z,43.10
2018-03-29T04:09:06.478Z,41.87
2018-03-29T04:11:37.127Z,41.22
2018-03-29T04:14:07.117Z,41.83
2018-03-29T04:16:37.839Z,43.33
2018-03-29T04:19:08.688Z,42.42
2018-03-29T04:21:39.744Z,46.05
2018-03-29T04:24:10.346Z,42.35
2018-03-29T04:26:41.594Z,40.70
2018-03-29T04:29:12.632Z,40.60
2018-03-29T04:31:43.181Z,40.42
2018-03-29T04:34:13.796Z,39.83
2018-03-29T04:36:45.036Z,40.35
2018-03-29T04:39:15.772Z,38.33
2018-03-29T04:41:46.700Z,41.80
2018-03-29T04:44:17.424Z,40.97
2018-03-29T04:46:48.628Z,44.03
2018-03-29T04:49:19.241Z,45.40
2018-03-29T04:51:49.800Z,43.87
2018-03-29T04:54:20.725Z,40.03
2018-03-29T04:56:51.415Z,37.28
2018-03-29T04:59:22.083Z,48.20
2018-03-29T05:01:52.865Z,38.92
2018-03-29T05:04:23.714Z,33.53
2018-03-29T05:06:54.776Z,33.10
2018-03-29T05:09:25.674Z,33.50
2018-03-29T05:11:56.352Z,33.54
2018-03-29T05:14:27.895Z,35.88
2018-03-29T05:16:58.356Z,52.26
2018-03-29T05:19:29.108Z,38.36
2018-03-29T05:21:59.815Z,41.83
2018-03-29T05:24:30.712Z,39.10
2018-03-29T05:27:01.592Z,33.97
2018-03-29T05:29:32.600Z,31.42
2018-03-29T05:32:03.336Z,32.30
2018-03-29T05:34:33.864Z,37.05
2018-03-29T05:37:04.948Z,38.20
2018-03-29T05:39:35.792Z,34.88
2018-03-29T05:42:06.730Z,32.80
2018-03-29T05:44:37.707Z,33.25
2018-03-29T05:47:10.932Z,35.22
2018-03-29T05:49:40.269Z,30.90
2018-03-29T05:52:10.916Z,29.15
2018-03-29T05:54:41.728Z,27.17
2018-03-29T05:57:18.044Z,27.42
2018-03-29T05:59:54.092Z,24.20
2018-03-29T06:02:30.059Z,22.23
2018-03-29T06:04:59.340Z,22.05
2018-03-29T06:07:28.728Z,22.40
2018-03-29T06:09:59.264Z,24.55
2018-03-29T06:12:28.653Z,22.70
2018-03-29T06:14:58.746Z,23.65
2018-03-29T06:17:28.116Z,23.92
2018-03-29T06:19:57.471Z,23.67
2018-03-29T06:22:26.874Z,21.33
2018-03-29T06:24:56.111Z,20.36
2018-03-29T06:27:25.458Z,19.37
2018-03-29T06:29:55.172Z,20.52
2018-03-29T06:32:25.820Z,19.48
2018-03-29T06:34:57.191Z,20.17
2018-03-29T06:37:27.811Z,19.75
2018-03-29T06:39:58.730Z,19.85
2018-03-29T06:42:29.766Z,19.20
2018-03-29T06:45:00.639Z,19.10
2018-03-29T06:47:31.733Z,19.37
2018-03-29T06:50:02.749Z,19.10
2018-03-29T06:52:33.825Z,18.08
2018-03-29T06:55:04.727Z,18.83
2018-03-29T06:57:35.772Z,19.35
2018-03-29T07:00:06.873Z,19.40
2018-03-29T07:02:37.820Z,19.80
2018-03-29T07:05:08.810Z,19.52
2018-03-29T07:07:39.828Z,18.85
2018-03-29T07:10:11.060Z,17.73
2018-03-29T07:12:42.458Z,18.20
2018-03-29T07:15:13.091Z,17.66
2018-03-29T07:17:43.816Z,16.00
2018-03-29T07:20:14.672Z,16.60
2018-03-29T07:22:45.755Z,15.80
2018-03-29T07:25:16.803Z,15.88
2018-03-29T07:27:47.847Z,16.37
2018-03-29T07:30:18.819Z,17.27
2018-03-29T07:32:49.976Z,16.65
2018-03-29T07:35:20.758Z,17.42
2018-03-29T07:37:51.541Z,17.17
2018-03-29T07:40:22.665Z,18.17
2018-03-29T07:42:53.783Z,18.62
2018-03-29T07:45:24.791Z,18.87
2018-03-29T07:47:55.830Z,17.87
2018-03-29T07:50:26.740Z,17.10
2018-03-29T07:52:57.953Z,16.62
2018-03-29T07:55:28.417Z,16.96
2018-03-29T07:57:59.208Z,17.42
2018-03-29T08:00:30.128Z,17.44
2018-03-29T08:03:00.843Z,18.33
2018-03-29T08:05:31.697Z,18.00
2018-03-29T08:08:02.439Z,18.90
2018-03-29T08:10:33.114Z,18.34
2018-03-29T08:13:03.849Z,19.37
2018-03-29T08:15:34.629Z,19.95
2018-03-29T08:18:05.712Z,19.65
2018-03-29T08:20:37.152Z,18.76
2018-03-29T08:23:07.809Z,18.35
2018-03-29T08:25:38.340Z,18.06
2018-03-29T08:28:08.908Z,18.35
2018-03-29T08:30:39.717Z,19.02
2018-03-29T08:33:10.900Z,17.25
2018-03-29T08:35:41.835Z,15.77
2018-03-29T08:38:16.686Z,15.05
2018-03-29T08:40:46.120Z,16.30
2018-03-29T08:43:15.396Z,14.23
2018-03-29T08:45:45.828Z,13.00
2018-03-29T08:48:16.415Z,12.34
2018-03-29T08:50:47.173Z,11.80
2018-03-29T08:53:17.804Z,11.50
2018-03-29T08:55:48.753Z,13.65
2018-03-29T08:58:19.769Z,13.20
2018-03-29T09:00:51.509Z,12.90
2018-03-29T09:03:22.163Z,13.22
2018-03-29T09:05:52.985Z,13.60
2018-03-29T09:08:23.779Z,12.82
2018-03-29T09:10:54.997Z,12.00
2018-03-29T09:13:25.736Z,11.07
2018-03-29T09:15:56.826Z,11.73
2018-03-29T09:18:27.831Z,11.35
2018-03-29T09:20:58.907Z,11.40
2018-03-29T09:23:29.841Z,11.57
2018-03-29T09:26:00.751Z,11.35
2018-03-29T09:28:31.401Z,11.84
2018-03-29T09:31:02.118Z,11.52
2018-03-29T09:33:32.732Z,16.65
2018-03-29T09:36:03.490Z,13.70
2018-03-29T09:38:34.565Z,23.22
2018-03-29T09:41:05.280Z,32.04
2018-03-29T09:43:35.839Z,14.95
2018-03-29T09:46:07.162Z,14.20
2018-03-29T09:48:37.790Z,13.05
2018-03-29T09:51:08.915Z,19.17
2018-03-29T09:53:39.721Z,13.75
2018-03-29T09:56:10.833Z,17.33
2018-03-29T09:58:41.520Z,16.18
2018-03-29T10:01:12.468Z,14.74
2018-03-29T10:03:41.998Z,13.20
2018-03-29T10:06:33.312Z,24.23
2018-03-29T10:09:02.560Z,11.63
2018-03-29T10:11:31.631Z,9.90
2018-03-29T10:14:00.664Z,9.68
2018-03-29T10:16:30.013Z,8.38
2018-03-29T10:18:59.342Z,7.10
2018-03-29T10:21:28.979Z,6.75
2018-03-29T10:23:58.343Z,6.07
2018-03-29T10:26:27.866Z,5.93
2018-03-29T10:28:57.221Z,5.07
2018-03-29T10:31:26.687Z,4.53
2018-03-29T10:33:56.120Z,4.35
2018-03-29T10:36:25.436Z,4.76
2018-03-29T10:38:54.756Z,4.53
2018-03-29T10:41:29.893Z,4.03
2018-03-29T10:43:59.150Z,3.92
2018-03-29T10:46:28.605Z,4.68
2018-03-29T10:48:58.144Z,4.20
2018-03-29T10:51:27.402Z,4.53
2018-03-29T10:53:58.253Z,5.38
2018-03-29T10:56:28.846Z,5.37
2018-03-29T10:58:59.781Z,5.32
2018-03-29T11:01:30.822Z,4.97
2018-03-29T11:04:01.790Z,4.40
2018-03-29T11:06:32.668Z,5.25
2018-03-29T11:09:03.854Z,6.25
2018-03-29T11:11:34.690Z,5.80
2018-03-29T11:14:05.727Z,5.53
2018-03-29T11:16:36.711Z,5.62
2018-03-29T11:19:07.736Z,6.45
2018-03-29T11:21:38.613Z,6.35
2018-03-29T11:24:09.694Z,6.70
2018-03-29T11:26:40.682Z,8.10
2018-03-29T11:29:11.771Z,6.65
2018-03-29T11:31:42.366Z,5.97
2018-03-29T11:34:13.068Z,4.16
2018-03-29T11:36:43.035Z,4.90
2018-03-29T11:39:13.837Z,5.40
2018-03-29T11:41:44.369Z,5.68
2018-03-29T11:44:15.175Z,5.78
2018-03-29T11:46:45.834Z,5.50
2018-03-29T11:49:16.918Z,5.35
2018-03-29T11:51:47.745Z,5.20
2018-03-29T11:54:18.752Z,5.07
2018-03-29T11:56:49.278Z,4.70
2018-03-29T11:59:19.826Z,3.25
2018-03-29T12:01:50.645Z,3.35
2018-03-29T12:04:21.666Z,2.47
2018-03-29T12:06:52.660Z,2.90
2018-03-29T12:09:23.678Z,2.65
2018-03-29T12:11:54.642Z,2.87
2018-03-29T12:14:25.658Z,2.58
2018-03-29T12:16:56.619Z,2.92
2018-03-29T12:19:27.730Z,3.20
2018-03-29T12:21:58.653Z,3.15
2018-03-29T12:24:29.665Z,3.03
2018-03-29T12:27:00.712Z,2.92
2018-03-29T12:29:31.809Z,2.90
2018-03-29T12:32:02.899Z,3.35
2018-03-29T12:34:33.843Z,2.87
2018-03-29T12:37:04.628Z,3.50
2018-03-29T12:39:35.668Z,3.00
2018-03-29T12:42:06.655Z,2.92
2018-03-29T12:44:37.687Z,3.80
2018-03-29T12:47:12.260Z,2.72
2018-03-29T12:49:45.785Z,4.55
2018-03-29T12:52:14.861Z,5.03
2018-03-29T12:54:54.700Z,4.80
2018-03-29T12:57:34.971Z,4.30
2018-03-29T13:00:04.208Z,3.53
2018-03-29T13:02:33.478Z,3.05
2018-03-29T13:05:02.622Z,2.73
2018-03-29T13:07:31.848Z,2.25
2018-03-29T13:10:01.299Z,2.10
2018-03-29T13:12:30.311Z,2.70
2018-03-29T13:15:04.589Z,2.25
2018-03-29T13:17:33.625Z,2.10
2018-03-29T13:20:02.646Z,2.20
2018-03-29T13:22:31.763Z,2.40
2018-03-29T13:25:00.903Z,2.03
2018-03-29T13:27:29.726Z,1.80
2018-03-29T13:29:58.804Z,1.97
2018-03-29T13:32:27.923Z,2.00
2018-03-29T13:34:57.161Z,1.63
2018-03-29T13:37:26.129Z,1.40
2018-03-29T13:39:56.147Z,27.87
2018-03-29T13:42:26.780Z,12.95
2018-03-29T13:44:57.632Z,2.10
2018-03-29T13:47:28.611Z,2.20
2018-03-29T13:49:59.655Z,2.95
2018-03-29T13:52:30.604Z,3.08
2018-03-29T13:55:01.621Z,2.87
2018-03-29T13:57:32.604Z,4.07
2018-03-29T14:00:03.659Z,3.08
2018-03-29T14:02:34.619Z,2.70
2018-03-29T14:05:05.467Z,2.22
2018-03-29T14:07:36.429Z,3.00
2018-03-29T14:10:07.103Z,2.76
2018-03-29T14:12:37.655Z,3.03
2018-03-29T14:15:08.691Z,3.53
2018-03-29T14:17:39.641Z,2.47
2018-03-29T14:20:10.675Z,3.12
2018-03-29T14:22:41.650Z,4.85
2018-03-29T14:25:12.674Z,3.00
2018-03-29T14:27:43.649Z,5.07
2018-03-29T14:30:14.749Z,3.10
2018-03-29T14:32:45.687Z,2.28
2018-03-29T14:35:16.800Z,2.90
2018-03-29T14:37:47.680Z,2.55
2018-03-29T14:40:18.415Z,2.90
2018-03-29T14:42:48.999Z,3.04
2018-03-29T14:45:19.710Z,3.85
2018-03-29T14:47:50.667Z,3.50
2018-03-29T14:50:21.718Z,3.58
2018-03-29T14:52:52.656Z,3.40
2018-03-29T14:55:23.687Z,3.33
2018-03-29T14:57:54.320Z,3.78
2018-03-29T15:00:24.881Z,3.60
2018-03-29T15:02:55.700Z,4.28
2018-03-29T15:05:26.761Z,3.87
2018-03-29T15:07:57.656Z,3.50
2018-03-29T15:10:28.348Z,3.64
2018-03-29T15:12:59.022Z,3.94
2018-03-29T15:15:29.803Z,3.75
2018-03-29T15:18:03.752Z,3.90
2018-03-29T15:20:33.122Z,4.03
2018-03-29T15:23:02.080Z,3.60
2018-03-29T15:25:32.705Z,3.70
2018-03-29T15:28:03.773Z,3.28
2018-03-29T15:30:34.420Z,3.42
2018-03-29T15:33:05.162Z,3.94
2018-03-29T15:35:35.847Z,3.92
2018-03-29T15:38:06.793Z,4.47
2018-03-29T15:40:37.696Z,4.78
2018-03-29T15:43:08.386Z,4.92
2018-03-29T15:45:38.811Z,4.25
2018-03-29T15:48:09.361Z,3.88
2018-03-29T15:50:40.088Z,4.04
2018-03-29T15:53:10.887Z,4.15
2018-03-29T15:55:41.680Z,4.03
2018-03-29T15:58:12.782Z,4.03
2018-03-29T16:00:43.649Z,4.93
2018-03-29T16:03:14.707Z,4.22
2018-03-29T16:05:45.693Z,5.03
2018-03-29T16:08:16.754Z,4.50
2018-03-29T16:10:47.712Z,4.50
2018-03-29T16:13:18.776Z,5.47
2018-03-29T16:15:49.762Z,5.62
2018-03-29T16:18:20.775Z,4.78
2018-03-29T16:20:51.664Z,5.03
2018-03-29T16:23:22.746Z,5.95
2018-03-29T16:25:53.767Z,7.32
2018-03-29T16:28:24.888Z,12.02
2018-03-29T16:30:55.791Z,10.95
2018-03-29T16:33:26.895Z,7.60
2018-03-29T16:35:58.336Z,10.60
2018-03-29T16:38:29.817Z,9.84
2018-03-29T16:40:59.492Z,8.52
2018-03-29T16:43:30.212Z,9.70
2018-03-29T16:46:00.133Z,8.80
2018-03-29T16:48:30.867Z,23.50
2018-03-29T16:51:01.351Z,22.52
2018-03-29T16:53:32.001Z,40.70
2018-03-29T16:56:02.873Z,35.47
2018-03-29T16:58:34.412Z,44.63
2018-03-29T17:01:05.276Z,32.22
2018-03-29T17:03:35.268Z,24.35
2018-03-29T17:06:05.773Z,41.13
2018-03-29T17:08:36.974Z,17.80
2018-03-29T17:11:08.552Z,7.12
2018-03-29T17:13:39.253Z,6.48
2018-03-29T17:16:09.760Z,6.18
2018-03-29T17:18:40.793Z,5.47
2018-03-29T17:21:15.291Z,5.72
2018-03-29T17:23:44.978Z,6.37
2018-03-29T17:26:14.059Z,6.75
2018-03-29T17:28:44.732Z,6.70
2018-03-29T17:31:15.886Z,8.27
2018-03-29T17:33:46.662Z,9.77
2018-03-29T17:36:18.579Z,28.38
2018-03-29T17:38:49.287Z,39.98
2018-03-29T17:41:19.983Z,36.58
2018-03-29T17:43:50.168Z,17.30
2018-03-29T17:46:20.875Z,8.32
2018-03-29T17:48:51.738Z,10.10
2018-03-29T17:51:22.848Z,9.88
2018-03-29T17:53:53.911Z,8.77
2018-03-29T17:56:24.780Z,9.65
2018-03-29T17:58:55.707Z,9.45
2018-03-29T18:01:26.936Z,9.38
2018-03-29T18:03:57.795Z,11.18
2018-03-29T18:06:28.756Z,9.90
2018-03-29T18:08:59.745Z,9.32
2018-03-29T18:11:30.808Z,8.93
2018-03-29T18:14:01.745Z,12.88
2018-03-29T18:16:32.439Z,13.04
2018-03-29T18:19:03.172Z,21.16
2018-03-29T18:21:33.861Z,21.08
2018-03-29T18:24:05.169Z,15.02
2018-03-29T18:26:35.900Z,13.95
2018-03-29T18:29:06.697Z,13.25
2018-03-29T18:31:37.377Z,13.18
2018-03-29T18:34:08.142Z,14.48
2018-03-29T18:36:40.771Z,13.82
2018-03-29T18:39:11.281Z,13.60
2018-03-29T18:41:41.324Z,12.85
2018-03-29T18:44:11.828Z,13.68
2018-03-29T18:46:42.891Z,13.62
2018-03-29T18:49:14.126Z,13.57
2018-03-29T18:51:44.925Z,12.30
2018-03-29T18:54:15.417Z,12.66
2018-03-29T18:56:46.237Z,13.62
2018-03-29T18:59:16.834Z,13.95
2018-03-29T19:01:47.953Z,14.63
2018-03-29T19:04:18.789Z,14.82
2018-03-29T19:06:49.774Z,14.43
2018-03-29T19:09:20.803Z,14.27
2018-03-29T19:11:52.175Z,14.07
2018-03-29T19:14:22.851Z,15.55
2018-03-29T19:16:53.825Z,14.35
2018-03-29T19:19:26.475Z,14.55
2018-03-29T19:21:55.848Z,19.85
2018-03-29T19:24:26.473Z,16.26
2018-03-29T19:26:57.280Z,15.86
2018-03-29T19:29:27.813Z,18.77
2018-03-29T19:31:59.480Z,14.70
2018-03-29T19:34:30.348Z,16.84
2018-03-29T19:37:00.966Z,36.65
2018-03-29T19:39:31.727Z,19.37
2018-03-29T19:42:02.822Z,16.58
2018-03-29T19:44:33.784Z,16.55
2018-03-29T19:47:04.880Z,74.70
2018-03-29T19:49:35.747Z,52.90
2018-03-29T19:52:06.838Z,25.30
2018-03-29T19:54:37.826Z,23.55
2018-03-29T19:57:08.797Z,21.85
2018-03-29T19:59:39.869Z,19.95
2018-03-29T20:02:10.995Z,23.92
2018-03-29T20:04:41.724Z,21.80
2018-03-29T20:07:12.823Z,17.98
2018-03-29T20:09:43.750Z,16.85
2018-03-29T20:12:14.934Z,23.77
2018-03-29T20:14:45.714Z,21.00
2018-03-29T20:17:16.866Z,18.62
2018-03-29T20:19:47.541Z,21.10
2018-03-29T20:22:18.477Z,23.98
2018-03-29T20:24:49.524Z,23.12
2018-03-29T20:27:20.657Z,22.08
2018-03-29T20:29:51.708Z,22.48
2018-03-29T20:32:22.804Z,21.17
2018-03-29T20:34:53.832Z,20.98
2018-03-29T20:37:24.765Z,24.40
2018-03-29T20:39:55.817Z,22.85
2018-03-29T20:42:26.744Z,22.50
2018-03-29T20:44:57.768Z,23.23
2018-03-29T20:47:28.814Z,22.75
2018-03-29T20:49:59.709Z,23.80
2018-03-29T20:52:30.853Z,24.98
2018-03-29T20:55:01.700Z,25.90
2018-03-29T20:57:32.839Z,23.55
2018-03-29T21:00:03.687Z,25.80
2018-03-29T21:02:34.941Z,28.02
2018-03-29T21:05:05.808Z,24.64
2018-03-29T21:07:36.437Z,23.26
2018-03-29T21:10:07.174Z,23.96
2018-03-29T21:12:37.810Z,22.40
2018-03-29T21:15:08.852Z,21.73
2018-03-29T21:17:39.889Z,20.88
2018-03-29T21:20:10.777Z,21.95
2018-03-29T21:22:41.859Z,23.98
2018-03-29T21:25:12.771Z,22.35
2018-03-29T21:27:48.956Z,21.45
2018-03-29T21:30:18.596Z,22.70
2018-03-29T21:32:48.143Z,22.53
2018-03-29T21:35:17.669Z,24.17
2018-03-29T21:37:48.448Z,22.56
2018-03-29T21:40:20.348Z,21.37
2018-03-29T21:42:50.132Z,23.70
2018-03-29T21:45:20.812Z,24.30
2018-03-29T21:47:51.844Z,23.90
2018-03-29T21:50:22.747Z,22.98
2018-03-29T21:52:53.846Z,21.80
2018-03-29T21:55:24.689Z,22.55
2018-03-29T21:57:55.465Z,24.14
2018-03-29T22:00:26.225Z,22.82
2018-03-29T22:02:56.936Z,22.77
2018-03-29T22:05:27.801Z,23.50
2018-03-29T22:07:58.765Z,23.58
2018-03-29T22:10:29.761Z,24.20
2018-03-29T22:13:00.868Z,22.25
2018-03-29T22:15:31.788Z,26.58
2018-03-29T22:18:02.892Z,24.77
2018-03-29T22:20:33.837Z,21.65
2018-03-29T22:23:04.843Z,21.17
2018-03-29T22:25:35.355Z,22.70
2018-03-29T22:28:06.190Z,23.24
2018-03-29T22:30:36.808Z,22.83
2018-03-29T22:33:07.789Z,24.33
2018-03-29T22:35:38.750Z,24.75
2018-03-29T22:38:09.464Z,23.28
2018-03-29T22:40:40.139Z,23.50
2018-03-29T22:43:10.883Z,21.30
2018-03-29T22:45:41.719Z,22.17
2018-03-29T22:48:12.612Z,20.05
2018-03-29T22:50:43.628Z,20.55
2018-03-29T22:53:14.699Z,19.12
2018-03-29T22:55:45.741Z,19.77
2018-03-29T22:58:16.821Z,22.15
2018-03-29T23:00:47.864Z,19.87
2018-03-29T23:03:18.687Z,20.73
2018-03-29T23:05:49.799Z,19.92
2018-03-29T23:08:20.650Z,20.62
2018-03-29T23:10:52.728Z,22.87
2018-03-29T23:13:23.438Z,24.90
2018-03-29T23:15:54.244Z,24.64
2018-03-29T23:18:24.158Z,23.33
2018-03-29T23:20:54.811Z,21.42
2018-03-29T23:23:26.312Z,20.98
2018-03-29T23:25:56.861Z,21.15
2018-03-29T23:28:27.656Z,19.77
2018-03-29T23:30:58.790Z,20.40
2018-03-29T23:33:29.721Z,22.25
2018-03-29T23:36:00.443Z,21.30
2018-03-29T23:38:31.200Z,22.90
2018-03-29T23:41:01.859Z,22.27
2018-03-29T23:43:32.932Z,22.10
2018-03-29T23:46:03.566Z,22.70
2018-03-29T23:48:34.249Z,21.66
2018-03-29T23:51:04.835Z,20.77
2018-03-29T23:53:35.764Z,21.75
2018-03-29T23:56:06.900Z,20.95
2018-03-29T23:58:37.687Z,20.98
